createdAt,value
2023-04-07T00:00:59.416Z,10.77
2023-04-07T00:03:27.852Z,9.50
2023-04-07T00:05:56.338Z,10.90
2023-04-07T00:08:24.702Z,12.93
2023-04-07T00:10:52.977Z,10.43
2023-04-07T00:13:24.230Z,10.97
2023-04-07T00:15:52.543Z,13.20
2023-04-07T00:18:22.283Z,16.37
2023-04-07T00:20:50.561Z,10.73
2023-04-07T00:23:21.631Z,10.73
2023-04-07T00:25:50.134Z,10.53
2023-04-07T00:30:46.873Z,9.63
2023-04-07T00:33:17.853Z,9.90
2023-04-07T00:35:50.072Z,9.90
2023-04-07T00:38:18.480Z,14.07
2023-04-07T00:40:46.760Z,10.67
2023-04-07T00:43:15.090Z,9.70
2023-04-07T00:45:43.699Z,10.13
2023-04-07T00:48:12.115Z,10.40
2023-04-07T00:50:40.473Z,9.33
2023-04-07T00:53:13.119Z,11.67
2023-04-07T00:55:41.499Z,12.73
2023-04-07T00:58:10.016Z,11.13
2023-04-07T01:00:52.916Z,13.50
2023-04-07T01:03:38.136Z,12.40
2023-04-07T01:06:09.670Z,14.10
2023-04-07T01:08:51.436Z,11.23
2023-04-07T01:11:26.389Z,11.73
2023-04-07T01:13:56.072Z,14.03
2023-04-07T01:16:30.092Z,12.83
2023-04-07T01:19:05.073Z,12.70
2023-04-07T01:21:36.695Z,10.60
2023-04-07T01:24:47.804Z,10.03
2023-04-07T01:27:23.266Z,9.23
2023-04-07T01:29:55.895Z,12.47
2023-04-07T01:32:27.132Z,10.57
2023-04-07T01:34:56.917Z,10.80
2023-04-07T01:37:28.452Z,11.17
2023-04-07T01:39:57.190Z,11.20
2023-04-07T01:42:27.762Z,9.73
2023-04-07T01:44:58.784Z,10.93
2023-04-07T01:47:30.967Z,9.93
2023-04-07T01:50:00.526Z,10.00
2023-04-07T01:52:32.320Z,9.93
2023-04-07T01:55:00.877Z,9.43
2023-04-07T01:57:29.246Z,10.37
2023-04-07T01:59:58.997Z,9.47
2023-04-07T02:02:27.485Z,10.13
2023-04-07T02:04:57.634Z,9.53
2023-04-07T02:07:33.304Z,10.37
2023-04-07T02:10:04.577Z,10.00
2023-04-07T02:12:34.209Z,10.30
2023-04-07T02:15:06.710Z,8.83
2023-04-07T02:17:38.157Z,12.83
2023-04-07T02:20:10.074Z,10.97
2023-04-07T02:22:42.691Z,10.63
2023-04-07T02:25:24.350Z,12.40
2023-04-07T02:27:52.875Z,9.43
2023-04-07T02:30:22.734Z,12.57
2023-04-07T02:32:51.362Z,9.57
2023-04-07T02:35:23.055Z,10.70
2023-04-07T02:37:51.981Z,11.13
2023-04-07T02:40:20.510Z,11.13
2023-04-07T02:42:48.988Z,11.03
2023-04-07T02:45:17.376Z,8.77
2023-04-07T02:47:49.936Z,11.33
2023-04-07T02:50:18.448Z,9.20
2023-04-07T02:52:46.818Z,10.17
2023-04-07T02:55:15.145Z,10.73
2023-04-07T02:57:46.373Z,10.70
2023-04-07T03:00:16.739Z,9.47
2023-04-07T03:02:46.560Z,9.27
2023-04-07T03:05:14.988Z,11.63
2023-04-07T03:07:46.429Z,9.73
2023-04-07T03:10:14.719Z,13.47
2023-04-07T03:12:43.051Z,11.40
2023-04-07T03:15:11.957Z,12.53
2023-04-07T03:17:40.348Z,12.10
2023-04-07T03:20:14.435Z,12.00
2023-04-07T03:22:42.887Z,10.37
2023-04-07T03:25:12.196Z,11.37
2023-04-07T03:27:40.669Z,13.00
2023-04-07T03:30:10.472Z,10.77
2023-04-07T03:32:38.869Z,10.60
2023-04-07T03:35:09.887Z,10.37
2023-04-07T03:37:38.232Z,11.40
2023-04-07T03:40:07.883Z,10.73
2023-04-07T03:42:36.265Z,12.07
2023-04-07T03:45:04.921Z,13.07
2023-04-07T03:47:38.969Z,12.40
2023-04-07T03:50:10.471Z,11.73
2023-04-07T03:52:38.793Z,11.13
2023-04-07T03:55:09.053Z,13.40
2023-04-07T03:57:37.451Z,11.00
2023-04-07T04:00:07.983Z,13.60
2023-04-07T04:02:36.554Z,12.10
2023-04-07T04:05:05.671Z,10.00
2023-04-07T04:07:36.015Z,12.40
2023-04-07T04:10:04.367Z,11.30
2023-04-07T04:12:32.796Z,12.17
2023-04-07T04:15:01.158Z,10.73
2023-04-07T04:17:29.508Z,18.43
2023-04-07T04:19:57.858Z,11.37
2023-04-07T04:22:26.295Z,10.70
2023-04-07T04:24:56.016Z,12.60
2023-04-07T04:27:24.809Z,11.87
2023-04-07T04:29:53.853Z,11.40
2023-04-07T04:32:22.395Z,13.23
2023-04-07T04:34:50.716Z,11.73
2023-04-07T04:37:21.772Z,11.40
2023-04-07T04:39:50.052Z,13.87
2023-04-07T04:42:19.738Z,12.63
2023-04-07T04:44:48.067Z,11.27
2023-04-07T04:47:16.427Z,12.57
2023-04-07T04:49:44.760Z,12.47
2023-04-07T04:52:13.131Z,17.13
2023-04-07T04:54:41.452Z,11.70
2023-04-07T04:57:09.899Z,12.53
2023-04-07T04:59:39.820Z,10.87
2023-04-07T05:02:08.237Z,13.07
2023-04-07T05:04:36.823Z,11.73
2023-04-07T05:07:05.765Z,12.73
2023-04-07T05:09:34.100Z,14.27
2023-04-07T05:12:03.116Z,12.13
2023-04-07T05:14:31.352Z,13.00
2023-04-07T05:17:03.853Z,13.93
2023-04-07T05:19:32.576Z,13.80
2023-04-07T05:22:01.259Z,12.27
2023-04-07T05:24:30.884Z,13.87
2023-04-07T05:26:59.261Z,11.30
2023-04-07T05:29:27.499Z,12.60
2023-04-07T05:31:55.866Z,12.63
2023-04-07T05:34:25.965Z,13.07
2023-04-07T05:36:54.222Z,14.03
2023-04-07T05:39:22.565Z,13.30
2023-04-07T05:41:50.995Z,14.00
2023-04-07T05:44:19.327Z,12.90
2023-04-07T05:46:47.584Z,12.87
2023-04-07T05:49:20.379Z,12.77
2023-04-07T05:51:50.408Z,16.90
2023-04-07T05:54:18.680Z,13.80
2023-04-07T05:56:49.729Z,13.13
2023-04-07T05:59:18.044Z,12.10
2023-04-07T06:01:46.618Z,12.87
2023-04-07T06:04:19.830Z,17.43
2023-04-07T06:06:52.686Z,17.37
2023-04-07T06:09:21.121Z,11.37
2023-04-07T06:11:49.465Z,14.57
2023-04-07T06:14:19.301Z,13.67
2023-04-07T06:16:50.887Z,12.33
2023-04-07T06:19:19.388Z,13.43
2023-04-07T06:21:52.044Z,14.03
2023-04-07T06:24:22.656Z,16.97
2023-04-07T06:26:51.116Z,13.90
2023-04-07T06:29:19.564Z,12.93
2023-04-07T06:31:47.821Z,14.70
2023-04-07T06:34:16.607Z,15.50
2023-04-07T06:36:46.450Z,19.33
2023-04-07T06:39:16.442Z,16.30
2023-04-07T06:41:44.709Z,22.97
2023-04-07T06:44:13.052Z,18.23
2023-04-07T06:46:42.341Z,14.53
2023-04-07T06:49:10.891Z,14.60
2023-04-07T06:51:39.246Z,14.40
2023-04-07T06:54:12.756Z,14.40
2023-04-07T06:56:43.406Z,13.23
2023-04-07T06:59:11.896Z,16.17
2023-04-07T07:01:40.549Z,13.40
2023-04-07T07:04:08.964Z,14.57
2023-04-07T07:06:37.305Z,14.70
2023-04-07T07:09:13.923Z,14.97
2023-04-07T07:11:43.577Z,16.50
2023-04-07T07:14:11.837Z,19.73
2023-04-07T07:16:41.168Z,19.03
2023-04-07T07:19:09.631Z,17.63
2023-04-07T07:21:43.865Z,19.53
2023-04-07T07:24:12.198Z,19.33
2023-04-07T07:26:43.459Z,17.33
2023-04-07T07:29:16.573Z,15.50
2023-04-07T07:31:45.329Z,15.53
2023-04-07T07:34:13.663Z,14.13
2023-04-07T07:36:44.828Z,14.37
2023-04-07T07:39:14.180Z,14.50
2023-04-07T07:41:42.684Z,14.07
2023-04-07T07:44:11.057Z,13.13
2023-04-07T07:46:43.043Z,13.63
2023-04-07T07:49:11.764Z,12.43
2023-04-07T07:51:40.067Z,12.57
2023-04-07T07:54:10.806Z,13.63
2023-04-07T07:56:39.198Z,13.17
2023-04-07T07:59:07.918Z,13.70
2023-04-07T08:01:36.322Z,11.03
2023-04-07T08:04:06.226Z,10.73
2023-04-07T08:06:40.206Z,10.87
2023-04-07T08:09:08.532Z,10.23
2023-04-07T08:11:36.853Z,9.43
2023-04-07T08:14:05.319Z,10.43
2023-04-07T08:16:33.929Z,9.97
2023-04-07T08:19:06.465Z,8.87
2023-04-07T08:21:34.844Z,10.97
2023-04-07T08:24:03.191Z,9.13
2023-04-07T08:26:37.689Z,9.90
2023-04-07T08:29:05.969Z,7.87
2023-04-07T08:31:36.831Z,8.87
2023-04-07T08:34:06.843Z,8.47
2023-04-07T08:36:37.925Z,7.83
2023-04-07T08:39:06.391Z,8.13
2023-04-07T08:41:42.425Z,9.00
2023-04-07T08:44:13.341Z,8.47
2023-04-07T08:46:42.505Z,7.13
2023-04-07T08:49:14.380Z,7.20
2023-04-07T08:51:48.495Z,7.80
2023-04-07T08:54:21.656Z,7.00
2023-04-07T08:56:50.133Z,7.27
2023-04-07T08:59:23.125Z,8.33
2023-04-07T09:01:51.769Z,7.13
2023-04-07T09:04:23.052Z,7.57
2023-04-07T09:06:54.543Z,7.60
2023-04-07T09:09:24.382Z,7.53
2023-04-07T09:11:53.074Z,7.67
2023-04-07T09:14:22.962Z,7.77
2023-04-07T09:16:51.311Z,7.47
2023-04-07T09:19:21.031Z,7.17
2023-04-07T09:21:51.328Z,6.77
2023-04-07T09:24:24.624Z,7.47
2023-04-07T09:26:53.276Z,7.27
2023-04-07T09:29:25.093Z,6.73
2023-04-07T09:31:55.371Z,6.83
2023-04-07T09:34:30.078Z,7.23
2023-04-07T09:37:04.248Z,6.50
2023-04-07T09:39:32.905Z,5.60
2023-04-07T09:42:07.863Z,7.00
2023-04-07T09:44:42.198Z,7.40
2023-04-07T09:47:13.538Z,6.97
2023-04-07T09:49:53.797Z,6.43
2023-04-07T09:52:27.459Z,8.97
2023-04-07T09:54:56.852Z,7.60
2023-04-07T09:57:25.839Z,6.70
2023-04-07T09:59:55.656Z,6.80
2023-04-07T10:02:26.902Z,7.03
2023-04-07T10:04:56.874Z,6.77
2023-04-07T10:07:25.640Z,6.73
2023-04-07T10:09:53.983Z,7.70
2023-04-07T10:12:22.825Z,8.20
2023-04-07T10:14:52.465Z,7.60
2023-04-07T10:17:22.295Z,6.93
2023-04-07T10:19:51.524Z,7.63
2023-04-07T10:22:22.289Z,7.27
2023-04-07T10:25:00.152Z,8.03
2023-04-07T10:27:34.706Z,7.47
2023-04-07T10:30:05.398Z,9.53
2023-04-07T10:32:33.843Z,7.60
2023-04-07T10:35:02.386Z,7.97
2023-04-07T10:37:34.374Z,7.67
2023-04-07T10:40:31.596Z,29.70
2023-04-07T10:43:01.181Z,11.60
2023-04-07T10:45:59.830Z,7.97
2023-04-07T10:48:34.022Z,10.50
2023-04-07T10:51:17.448Z,8.10
2023-04-07T10:54:22.423Z,7.67
2023-04-07T10:57:14.586Z,7.17
2023-04-07T11:00:17.929Z,7.03
2023-04-07T11:02:46.754Z,7.63
2023-04-07T11:05:24.686Z,7.90
2023-04-07T11:08:02.601Z,7.27
2023-04-07T11:10:32.369Z,8.03
2023-04-07T11:13:06.559Z,9.03
2023-04-07T11:15:39.364Z,8.03
2023-04-07T11:18:18.709Z,7.23
2023-04-07T11:20:50.375Z,8.00
2023-04-07T11:23:20.944Z,6.97
2023-04-07T11:25:53.512Z,6.07
2023-04-07T11:28:21.937Z,7.27
2023-04-07T11:30:52.986Z,7.27
2023-04-07T11:33:23.290Z,7.87
2023-04-07T11:35:56.864Z,7.67
2023-04-07T11:38:27.391Z,7.70
2023-04-07T11:40:58.062Z,6.67
2023-04-07T11:43:28.271Z,6.00
2023-04-07T11:46:13.908Z,6.27
2023-04-07T11:48:44.760Z,6.73
2023-04-07T11:51:19.204Z,6.67
2023-04-07T11:53:48.529Z,6.60
2023-04-07T11:56:18.917Z,6.07
2023-04-07T11:58:51.451Z,6.77
2023-04-07T12:01:20.120Z,6.63
2023-04-07T12:04:00.226Z,6.67
2023-04-07T12:06:34.922Z,5.83
2023-04-07T12:09:04.012Z,6.60
2023-04-07T12:11:34.660Z,6.20
2023-04-07T12:14:05.237Z,6.77
2023-04-07T12:16:42.697Z,6.70
2023-04-07T12:19:11.066Z,6.43
2023-04-07T12:21:39.465Z,6.60
2023-04-07T12:24:07.900Z,6.20
2023-04-07T12:26:40.833Z,6.50
2023-04-07T12:29:09.170Z,5.97
2023-04-07T12:31:37.608Z,5.67
2023-04-07T12:34:06.394Z,5.87
2023-04-07T12:36:35.264Z,6.53
2023-04-07T12:39:03.764Z,6.67
2023-04-07T12:41:32.523Z,6.00
2023-04-07T12:44:02.364Z,6.60
2023-04-07T12:46:39.754Z,6.67
2023-04-07T12:49:08.487Z,7.77
2023-04-07T12:51:37.653Z,6.63
2023-04-07T12:54:06.032Z,5.30
2023-04-07T12:56:40.372Z,6.10
2023-04-07T12:59:10.172Z,5.90
2023-04-07T13:01:38.718Z,8.10
2023-04-07T13:04:07.737Z,6.70
2023-04-07T13:06:37.363Z,6.33
2023-04-07T13:09:06.020Z,6.90
2023-04-07T13:11:34.487Z,6.07
2023-04-07T13:14:03.464Z,6.57
2023-04-07T13:16:34.385Z,5.83
2023-04-07T13:19:04.083Z,6.10
2023-04-07T13:24:03.814Z,6.70
2023-04-07T13:26:32.394Z,6.27
2023-04-07T13:29:00.732Z,6.33
2023-04-07T13:31:32.225Z,5.63
2023-04-07T13:34:00.576Z,6.63
2023-04-07T13:36:30.445Z,7.47
2023-04-07T13:38:59.719Z,6.17
2023-04-07T13:41:28.219Z,6.30
2023-04-07T13:43:56.667Z,6.60
2023-04-07T13:46:28.420Z,6.70
2023-04-07T13:48:58.795Z,6.50
2023-04-07T13:51:28.122Z,6.70
2023-04-07T13:53:56.677Z,5.90
2023-04-07T13:56:25.194Z,7.20
2023-04-07T13:58:54.114Z,6.80
2023-04-07T14:01:22.777Z,6.77
2023-04-07T14:03:51.490Z,5.93
2023-04-07T14:06:22.902Z,6.23
2023-04-07T14:08:51.422Z,6.40
2023-04-07T14:11:22.625Z,5.57
2023-04-07T14:13:52.414Z,7.43
2023-04-07T14:16:21.166Z,6.03
2023-04-07T14:18:51.560Z,5.30
2023-04-07T14:21:21.333Z,6.30
2023-04-07T14:23:49.722Z,6.37
2023-04-07T14:26:18.173Z,6.53
2023-04-07T14:28:47.575Z,7.13
2023-04-07T14:31:17.001Z,5.97
2023-04-07T14:33:46.765Z,6.13
2023-04-07T14:36:16.782Z,6.70
2023-04-07T14:38:46.700Z,6.27
2023-04-07T14:41:15.136Z,6.43
2023-04-07T14:43:43.556Z,6.80
2023-04-07T14:46:12.435Z,5.87
2023-04-07T14:48:40.943Z,6.77
2023-04-07T14:51:13.818Z,6.50
2023-04-07T14:53:43.393Z,6.20
2023-04-07T14:56:13.495Z,6.20
2023-04-07T14:58:42.172Z,6.23
2023-04-07T15:01:10.657Z,6.20
2023-04-07T15:03:39.347Z,5.87
2023-04-07T15:06:11.486Z,5.80
2023-04-07T15:08:40.524Z,5.87
2023-04-07T15:11:09.444Z,5.17
2023-04-07T15:13:41.538Z,6.20
2023-04-07T15:16:12.992Z,5.80
2023-04-07T15:18:44.822Z,5.40
2023-04-07T15:21:14.939Z,5.30
2023-04-07T15:23:43.620Z,6.13
2023-04-07T15:26:12.166Z,6.10
2023-04-07T15:28:42.021Z,5.37
2023-04-07T15:31:10.513Z,5.97
2023-04-07T15:33:40.842Z,6.73
2023-04-07T15:36:10.450Z,6.20
2023-04-07T15:38:40.486Z,5.90
2023-04-07T15:41:09.100Z,6.10
2023-04-07T15:43:37.857Z,5.70
2023-04-07T15:46:07.585Z,6.17
2023-04-07T15:48:35.980Z,5.83
2023-04-07T15:51:04.453Z,5.90
2023-04-07T15:53:32.855Z,5.60
2023-04-07T15:56:01.444Z,5.33
2023-04-07T15:58:30.108Z,5.87
2023-04-07T16:00:58.541Z,5.13
2023-04-07T16:03:29.072Z,8.07
2023-04-07T16:05:57.756Z,6.50
2023-04-07T16:08:26.262Z,6.13
2023-04-07T16:10:54.788Z,5.13
2023-04-07T16:13:23.173Z,4.77
2023-04-07T16:15:51.537Z,5.60
2023-04-07T16:18:20.062Z,5.77
2023-04-07T16:20:49.811Z,6.10
2023-04-07T16:23:18.174Z,5.60
2023-04-07T16:25:46.535Z,5.43
2023-04-07T16:28:14.911Z,5.00
2023-04-07T16:30:43.865Z,5.93
2023-04-07T16:33:12.483Z,5.30
2023-04-07T16:35:40.974Z,5.57
2023-04-07T16:38:11.510Z,6.10
2023-04-07T16:40:39.873Z,5.50
2023-04-07T16:43:09.090Z,6.37
2023-04-07T16:45:37.464Z,5.73
2023-04-07T16:48:07.723Z,7.00
2023-04-07T16:50:36.145Z,6.90
2023-04-07T16:53:04.486Z,6.60
2023-04-07T16:55:37.557Z,9.53
2023-04-07T16:58:05.951Z,6.37
2023-04-07T17:00:34.544Z,5.47
2023-04-07T17:03:03.040Z,5.33
2023-04-07T17:05:31.596Z,5.43
2023-04-07T17:08:00.065Z,7.43
2023-04-07T17:10:28.863Z,5.33
2023-04-07T17:12:58.708Z,5.80
2023-04-07T17:15:27.125Z,5.33
2023-04-07T17:17:55.924Z,5.30
2023-04-07T17:20:24.619Z,5.30
2023-04-07T17:22:53.008Z,5.23
2023-04-07T17:25:21.375Z,5.53
2023-04-07T17:27:49.823Z,5.57
2023-04-07T17:30:19.863Z,6.27
2023-04-07T17:32:48.306Z,5.67
2023-04-07T17:35:16.733Z,5.37
2023-04-07T17:37:45.083Z,6.47
2023-04-07T17:40:14.002Z,6.20
2023-04-07T17:42:42.933Z,6.10
2023-04-07T17:45:11.982Z,5.57
2023-04-07T17:47:46.382Z,6.13
2023-04-07T17:50:14.886Z,5.80
2023-04-07T17:52:43.241Z,6.40
2023-04-07T17:55:12.463Z,6.70
2023-04-07T17:57:42.447Z,7.13
2023-04-07T18:00:11.827Z,8.47
2023-04-07T18:02:41.872Z,6.90
2023-04-07T18:05:11.929Z,6.63
2023-04-07T18:07:40.335Z,6.57
2023-04-07T18:10:10.682Z,6.37
2023-04-07T18:12:39.534Z,7.83
2023-04-07T18:15:09.486Z,6.87
2023-04-07T18:17:38.002Z,6.40
2023-04-07T18:20:09.432Z,6.67
2023-04-07T18:22:38.351Z,7.10
2023-04-07T18:25:07.628Z,7.10
2023-04-07T18:27:36.003Z,7.47
2023-04-07T18:30:04.753Z,7.00
2023-04-07T18:32:33.206Z,6.33
2023-04-07T18:35:04.406Z,8.67
2023-04-07T18:37:34.179Z,9.80
2023-04-07T18:40:02.580Z,8.17
2023-04-07T18:42:31.039Z,8.43
2023-04-07T18:44:59.364Z,8.23
2023-04-07T18:47:28.859Z,7.10
2023-04-07T18:49:58.744Z,10.03
2023-04-07T18:52:27.648Z,7.67
2023-04-07T18:54:57.863Z,8.30
2023-04-07T18:57:26.210Z,7.67
2023-04-07T18:59:54.488Z,7.77
2023-04-07T19:02:25.814Z,7.97
2023-04-07T19:04:54.199Z,11.50
2023-04-07T19:07:22.530Z,8.13
2023-04-07T19:09:53.574Z,7.73
2023-04-07T19:12:23.234Z,8.20
2023-04-07T19:14:51.511Z,8.20
2023-04-07T19:17:20.001Z,7.50
2023-04-07T19:19:48.634Z,7.10
2023-04-07T19:22:17.688Z,7.70
2023-04-07T19:24:45.984Z,6.67
2023-04-07T19:27:14.729Z,8.60
2023-04-07T19:29:44.411Z,7.13
2023-04-07T19:32:12.749Z,7.77
2023-04-07T19:34:41.552Z,8.30
2023-04-07T19:37:14.726Z,8.77
2023-04-07T19:39:52.225Z,9.30
2023-04-07T19:42:29.584Z,9.70
2023-04-07T19:45:00.450Z,13.50
2023-04-07T19:47:29.007Z,13.20
2023-04-07T19:49:57.434Z,13.00
2023-04-07T19:52:25.913Z,10.77
2023-04-07T19:54:54.217Z,10.70
2023-04-07T19:57:22.636Z,11.33
2023-04-07T19:59:50.967Z,9.77
2023-04-07T20:02:21.688Z,9.13
2023-04-07T20:04:50.143Z,8.57
2023-04-07T20:07:18.498Z,8.50
2023-04-07T20:09:46.918Z,9.00
2023-04-07T20:12:16.855Z,8.30
2023-04-07T20:14:45.301Z,7.93
2023-04-07T20:17:13.852Z,8.00
2023-04-07T20:19:43.634Z,8.30
2023-04-07T20:22:17.881Z,8.20
2023-04-07T20:24:46.168Z,8.33
2023-04-07T20:27:14.524Z,9.60
2023-04-07T20:29:42.870Z,7.67
2023-04-07T20:32:13.315Z,8.70
2023-04-07T20:34:45.992Z,8.50
2023-04-07T20:37:14.305Z,7.70
2023-04-07T20:39:43.133Z,7.10
2023-04-07T20:42:12.469Z,6.87
2023-04-07T20:44:41.984Z,7.57
2023-04-07T20:47:10.513Z,8.80
2023-04-07T20:49:39.675Z,7.83
2023-04-07T20:52:09.487Z,7.13
2023-04-07T20:54:37.859Z,9.00
2023-04-07T20:57:06.165Z,8.37
2023-04-07T20:59:34.481Z,7.90
2023-04-07T21:02:03.394Z,8.10
2023-04-07T21:04:32.494Z,9.83
2023-04-07T21:07:00.849Z,7.43
2023-04-07T21:09:30.567Z,8.17
2023-04-07T21:12:00.152Z,8.63
2023-04-07T21:14:28.526Z,8.33
2023-04-07T21:16:56.870Z,7.90
2023-04-07T21:19:25.352Z,6.90
2023-04-07T21:21:53.768Z,7.67
2023-04-07T21:24:22.745Z,9.73
2023-04-07T21:26:59.467Z,7.67
2023-04-07T21:29:31.751Z,8.60
2023-04-07T21:32:00.389Z,8.77
2023-04-07T21:34:28.662Z,7.90
2023-04-07T21:37:03.155Z,10.27
2023-04-07T21:39:31.449Z,10.73
2023-04-07T21:42:01.441Z,9.30
2023-04-07T21:44:29.748Z,7.87
2023-04-07T21:46:58.891Z,7.63
2023-04-07T21:49:27.603Z,8.43
2023-04-07T21:51:55.976Z,9.17
2023-04-07T21:54:25.094Z,8.33
2023-04-07T21:56:54.098Z,12.43
2023-04-07T21:59:23.908Z,7.63
2023-04-07T22:01:52.596Z,8.87
2023-04-07T22:04:21.838Z,8.23
2023-04-07T22:06:55.863Z,8.23
2023-04-07T22:09:24.165Z,7.87
2023-04-07T22:11:53.677Z,8.13
2023-04-07T22:14:25.051Z,7.90
2023-04-07T22:16:53.725Z,9.20
2023-04-07T22:19:22.416Z,8.47
2023-04-07T22:21:50.808Z,7.73
2023-04-07T22:24:19.124Z,7.87
2023-04-07T22:26:47.468Z,7.30
2023-04-07T22:29:15.768Z,7.77
2023-04-07T22:31:45.672Z,7.10
2023-04-07T22:34:14.070Z,7.50
2023-04-07T22:36:42.406Z,7.20
2023-04-07T22:39:11.668Z,7.03
2023-04-07T22:41:40.083Z,7.00
2023-04-07T22:44:08.417Z,7.13
2023-04-07T22:46:36.754Z,8.53
2023-04-07T22:49:06.504Z,8.83
2023-04-07T22:51:37.394Z,7.87
2023-04-07T22:54:06.131Z,8.57
2023-04-07T22:56:34.463Z,7.70
2023-04-07T22:59:05.624Z,7.70
2023-04-07T23:01:34.539Z,7.73
2023-04-07T23:04:02.859Z,8.70
2023-04-07T23:06:35.646Z,7.73
2023-04-07T23:09:03.948Z,7.70
2023-04-07T23:11:32.266Z,8.80
2023-04-07T23:14:05.947Z,9.90
2023-04-07T23:16:35.351Z,8.63
2023-04-07T23:19:03.769Z,9.27
2023-04-07T23:21:33.533Z,8.03
2023-04-07T23:24:01.866Z,8.57
2023-04-07T23:26:31.568Z,7.60
2023-04-07T23:29:02.941Z,8.17
2023-04-07T23:31:33.166Z,8.77
2023-04-07T23:34:01.578Z,8.50
2023-04-07T23:36:29.962Z,8.30
2023-04-07T23:38:59.626Z,8.80
2023-04-07T23:41:28.144Z,8.13
2023-04-07T23:43:59.418Z,7.90
2023-04-07T23:46:27.810Z,8.20
2023-04-07T23:48:56.279Z,8.60
2023-04-07T23:51:24.588Z,8.73
2023-04-07T23:53:52.983Z,8.87
2023-04-07T23:56:22.783Z,9.50
2023-04-07T23:58:51.360Z,9.33
